Time;durP1;ratioP1;P1;durP2;ratioP2;P2;SDS_P1;SDS_P2;PMS_P1;PMS_P2;Temp;Humidity;BMP_temperature;BMP_pressure;BME280_temperature;BME280_humidity;BME280_pressure;Samples;Min_cycle;Max_cycle;Signal;HPM_P1;HPM_P2
2022/06/12 00:09:08;;;;;;;5.17;3.60;;;19.10;88.70;;;;;;21081296;28;20216;-65
2022/06/12 00:19:10;;;;;;;5.07;3.30;;;19.00;89.30;;;;;;21080524;28;20233;-64
2022/06/12 00:29:25;;;;;;;5.43;3.37;;;18.90;89.80;;;;;;21080021;28;20228;-65
2022/06/12 00:39:28;;;;;;;7.70;3.60;;;18.80;90.20;;;;;;21078856;28;20766;-64
2022/06/12 00:49:33;;;;;;;5.37;3.50;;;18.70;90.50;;;;;;21078985;28;20559;-64
2022/06/12 00:59:38;;;;;;;6.50;3.50;;;18.50;90.80;;;;;;21080222;28;20266;-64
2022/06/12 01:09:43;;;;;;;9.83;3.50;;;18.40;91.10;;;;;;21078004;28;20218;-64
2022/06/12 01:19:55;;;;;;;7.17;3.70;;;18.30;91.40;;;;;;21089879;28;20235;-65
2022/06/12 01:30:17;;;;;;;6.23;3.47;;;18.10;91.60;;;;;;21094858;28;20253;-64
2022/06/12 01:40:32;;;;;;;5.97;3.53;;;17.90;92.00;;;;;;21093445;28;20235;-66
2022/06/12 01:50:58;;;;;;;4.40;3.53;;;17.80;92.30;;;;;;21092466;28;20208;-65
2022/06/12 02:01:30;;;;;;;5.20;4.00;;;17.60;92.70;;;;;;21091495;28;20722;-65
2022/06/12 02:22:10;;;;;;;6.43;3.73;;;17.50;93.10;;;;;;21089699;28;20595;-64
2022/06/12 02:32:23;;;;;;;4.23;3.80;;;17.50;93.30;;;;;;21088509;28;20280;-69
2022/06/12 02:42:37;;;;;;;5.00;3.60;;;17.40;93.50;;;;;;21087995;28;20230;-70
2022/06/12 02:53:10;;;;;;;5.40;4.00;;;17.40;93.60;;;;;;21087305;28;20208;-70
2022/06/12 03:03:35;;;;;;;5.57;3.30;;;17.30;93.70;;;;;;21086605;28;20241;-67
2022/06/12 03:13:38;;;;;;;8.00;3.60;;;17.20;93.70;;;;;;21086163;28;20203;-64
2022/06/12 03:23:42;;;;;;;5.40;4.00;;;17.10;93.80;;;;;;21084631;28;20242;-64
2022/06/12 03:33:57;;;;;;;7.13;3.90;;;16.90;94.00;;;;;;21084382;28;20230;-64
2022/06/12 03:44:22;;;;;;;6.23;3.93;;;16.90;94.30;;;;;;21082729;28;20290;-64
2022/06/12 03:55:05;;;;;;;6.20;4.17;;;16.80;94.30;;;;;;21082955;28;20208;-64
2022/06/12 04:05:09;;;;;;;10.37;5.20;;;16.80;94.40;;;;;;21081579;28;20214;-64
2022/06/12 04:15:15;;;;;;;4.60;3.70;;;16.80;94.80;;;;;;21081350;28;20572;-64
2022/06/12 04:25:22;;;;;;;4.53;4.00;;;16.90;94.50;;;;;;21079649;28;20240;-65
2022/06/12 04:35:24;;;;;;;6.67;4.30;;;17.10;94.50;;;;;;21079783;28;20241;-64
2022/06/12 04:45:26;;;;;;;6.30;4.37;;;17.30;94.40;;;;;;21079653;28;20258;-64
2022/06/12 04:55:27;;;;;;;7.13;5.10;;;17.20;94.60;;;;;;21077520;28;20695;-66
2022/06/12 05:05:30;;;;;;;7.37;4.70;;;17.40;94.70;;;;;;21077345;28;20206;-65
2022/06/12 05:15:32;;;;;;;7.30;5.30;;;17.60;94.70;;;;;;21078198;28;20230;-65
2022/06/12 05:25:35;;;;;;;9.20;5.80;;;17.90;94.60;;;;;;21076880;28;20294;-64
2022/06/12 05:35:39;;;;;;;9.10;5.50;;;18.00;94.50;;;;;;21076816;28;20235;-68
2022/06/12 05:45:41;;;;;;;7.70;4.77;;;18.20;94.60;;;;;;21076698;28;20215;-65
2022/06/12 05:55:44;;;;;;;10.70;4.60;;;18.50;94.40;;;;;;21077119;28;20269;-65
2022/06/12 06:05:47;;;;;;;10.00;4.33;;;18.80;94.30;;;;;;21088010;28;20210;-70
2022/06/12 06:15:50;;;;;;;9.00;4.30;;;19.10;94.20;;;;;;21090723;28;20239;-70
2022/06/12 06:25:52;;;;;;;8.60;4.53;;;19.40;93.80;;;;;;21089371;28;20241;-66
2022/06/12 06:35:53;;;;;;;5.03;3.90;;;19.70;93.50;;;;;;21088957;28;20274;-65
2022/06/12 06:46:13;;;;;;;4.80;4.00;;;20.00;93.20;;;;;;21088664;28;20214;-65
2022/06/12 06:56:15;;;;;;;8.33;4.50;;;20.30;93.00;;;;;;21087181;28;20233;-69
2022/06/12 07:06:17;;;;;;;7.97;4.43;;;20.60;92.60;;;;;;21086228;28;20260;-68
2022/06/12 07:16:29;;;;;;;7.30;4.97;;;21.00;92.30;;;;;;21084967;28;20238;-68
2022/06/12 07:26:35;;;;;;;6.83;3.80;;;21.20;92.10;;;;;;21084469;28;20230;-68
2022/06/12 07:36:37;;;;;;;4.60;3.53;;;21.50;91.90;;;;;;21083918;28;20235;-65
2022/06/12 07:46:39;;;;;;;6.17;4.00;;;21.70;91.60;;;;;;21084549;28;20285;-65
2022/06/12 07:56:41;;;;;;;6.40;3.50;;;21.90;91.40;;;;;;21082067;28;20284;-65
2022/06/12 08:06:43;;;;;;;6.20;3.67;;;22.20;91.20;;;;;;21081626;28;20256;-65
2022/06/12 08:16:45;;;;;;;3.40;2.90;;;22.50;91.00;;;;;;21081170;28;20315;-67
2022/06/12 08:26:46;;;;;;;3.37;2.70;;;22.80;90.20;;;;;;21078904;28;20725;-71
2022/06/12 08:36:59;;;;;;;2.70;2.40;;;23.10;88.80;;;;;;21078856;28;20685;-66
2022/06/12 08:47:11;;;;;;;3.00;1.90;;;23.30;86.60;;;;;;21079108;28;20229;-67
2022/06/12 08:57:19;;;;;;;5.60;1.87;;;23.60;81.40;;;;;;21078145;28;20237;-67
2022/06/12 09:07:49;;;;;;;4.97;2.00;;;24.00;78.20;;;;;;21077847;28;20289;-71
2022/06/12 09:18:13;;;;;;;3.13;1.97;;;24.20;76.20;;;;;;21077941;28;20291;-67
2022/06/12 09:28:36;;;;;;;3.67;2.30;;;24.50;74.30;;;;;;21077221;28;20316;-67
2022/06/12 09:38:59;;;;;;;2.73;2.13;;;24.80;72.30;;;;;;21084567;28;20295;-69
2022/06/12 09:49:28;;;;;;;3.70;2.23;;;25.10;71.20;;;;;;21093003;28;20263;-67
2022/06/12 09:59:42;;;;;;;5.00;2.40;;;25.50;70.60;;;;;;21091666;28;20587;-66
2022/06/12 10:09:50;;;;;;;3.90;2.30;;;25.60;68.80;;;;;;21082890;28;20202;-67
2022/06/12 10:19:51;;;;;;;3.23;2.40;;;25.70;67.20;;;;;;21089951;28;20242;-65
2022/06/12 10:29:58;;;;;;;3.53;2.10;;;25.80;66.40;;;;;;21089873;28;20234;-65
2022/06/12 10:40:01;;;;;;;5.23;2.63;;;25.70;66.10;;;;;;21088187;28;20632;-67
2022/06/12 10:50:15;;;;;;;3.37;2.50;;;25.80;65.10;;;;;;21086389;28;20256;-66
2022/06/12 11:00:26;;;;;;;2.53;1.97;;;26.10;63.20;;;;;;21087700;28;20241;-68
2022/06/12 11:10:44;;;;;;;5.13;2.87;;;26.20;61.80;;;;;;21087207;28;20666;-66
2022/06/12 11:21:19;;;;;;;6.00;3.53;;;26.30;60.80;;;;;;21089358;28;20234;-65
2022/06/12 11:31:33;;;;;;;2.83;2.20;;;26.40;60.20;;;;;;21066108;28;20238;-66
2022/06/12 11:41:44;;;;;;;4.60;2.40;;;26.40;59.70;;;;;;21083104;28;20841;-67
2022/06/12 11:52:07;;;;;;;3.50;2.30;;;26.50;59.80;;;;;;21082956;28;20297;-68
2022/06/12 12:02:52;;;;;;;3.27;2.17;;;26.80;58.20;;;;;;21081185;28;20242;-65
2022/06/12 12:13:01;;;;;;;3.43;2.27;;;27.10;58.70;;;;;;21080417;28;20201;-68
2022/06/12 12:23:18;;;;;;;3.30;2.28;;;27.40;58.00;;;;;;21078828;28;20236;-70
2022/06/12 12:33:20;;;;;;;3.40;2.10;;;27.50;58.00;;;;;;21079967;28;20307;-68
2022/06/12 12:43:22;;;;;;;3.00;2.13;;;27.20;58.50;;;;;;21077149;28;20304;-70
2022/06/12 12:53:30;;;;;;;2.63;2.30;;;27.30;58.60;;;;;;21078196;28;20256;-72
2022/06/12 13:03:46;;;;;;;4.37;2.37;;;27.30;57.80;;;;;;21077670;28;20230;-69
2022/06/12 13:13:55;;;;;;;5.47;2.40;;;27.10;57.80;;;;;;21086733;28;20332;-68
2022/06/12 13:24:38;;;;;;;5.43;2.70;;;27.10;57.60;;;;;;21094016;28;20234;-72
2022/06/12 13:34:39;;;;;;;4.57;2.20;;;27.10;57.50;;;;;;21049145;28;20202;-69
2022/06/12 13:44:46;;;;;;;2.20;2.00;;;27.20;57.10;;;;;;21092114;28;20233;-72
2022/06/12 13:54:48;;;;;;;6.97;2.10;;;27.30;57.30;;;;;;21091909;28;20260;-72
2022/06/12 14:05:18;;;;;;;6.30;2.20;;;27.20;57.30;;;;;;21091185;28;20234;-74
2022/06/12 14:15:32;;;;;;;2.90;1.93;;;27.20;57.10;;;;;;21081249;28;20203;-72
2022/06/12 14:25:38;;;;;;;3.23;1.83;;;27.40;55.80;;;;;;21089247;28;20593;-73
2022/06/12 14:35:43;;;;;;;5.83;2.13;;;27.50;54.40;;;;;;21088324;28;20263;-69
2022/06/12 14:45:51;;;;;;;4.83;2.03;;;27.60;54.30;;;;;;21087873;28;20577;-72
2022/06/12 14:55:55;;;;;;;3.20;1.80;;;27.60;53.30;;;;;;21085609;28;20226;-72
2022/06/12 15:05:57;;;;;;;2.65;2.00;;;27.90;51.70;;;;;;21086417;28;20254;-72
2022/06/12 15:15:58;;;;;;;2.73;2.10;;;28.00;50.70;;;;;;21085706;28;20320;-73
2022/06/12 15:36:21;;;;;;;3.73;2.40;;;27.60;51.00;;;;;;21083542;28;20230;-71
2022/06/12 15:46:22;;;;;;;4.80;3.10;;;27.70;50.60;;;;;;21084040;28;20205;-70
2022/06/12 15:56:26;;;;;;;5.70;2.10;;;28.20;50.00;;;;;;21083029;28;20236;-71
2022/06/12 16:06:28;;;;;;;5.75;2.25;;;28.90;49.30;;;;;;21063709;28;20252;-73
2022/06/12 16:16:30;;;;;;;5.82;2.20;;;29.80;47.80;;;;;;21085373;28;20234;-76
2022/06/12 16:26:32;;;;;;;7.90;2.10;;;29.60;47.70;;;;;;21069515;28;20246;-77
2022/06/12 16:36:35;;;;;;;3.58;2.10;;;28.90;48.60;;;;;;21085234;28;20229;-75
2022/06/12 16:46:43;;;;;;;4.57;2.00;;;28.10;50.00;;;;;;21079064;28;20211;-73
2022/06/12 16:56:45;;;;;;;3.30;2.23;;;27.60;50.50;;;;;;21078844;28;20242;-75
2022/06/12 17:06:47;;;;;;;4.37;2.20;;;27.40;50.70;;;;;;21060176;28;20632;-76
2022/06/12 17:16:48;;;;;;;3.97;2.20;;;27.40;51.20;;;;;;21079363;28;20237;-65
2022/06/12 17:26:50;;;;;;;7.47;2.70;;;27.30;51.70;;;;;;21077526;28;20276;-68
2022/06/12 17:36:52;;;;;;;3.83;2.20;;;27.00;52.50;;;;;;21076870;28;20596;-67
2022/06/12 17:46:54;;;;;;;8.63;2.47;;;27.60;51.70;;;;;;21075288;28;20245;-72
2022/06/12 17:56:56;;;;;;;4.95;2.25;;;27.90;51.40;;;;;;21077902;28;20588;-73
2022/06/12 18:06:58;;;;;;;5.00;2.20;;;27.80;50.70;;;;;;21090806;28;20737;-71
2022/06/12 18:27:24;;;;;;;7.63;2.00;;;27.20;52.30;;;;;;21061108;28;20237;-72
2022/06/12 18:37:26;;;;;;;3.87;2.10;;;26.80;52.70;;;;;;21089434;28;20238;-69
2022/06/12 18:47:28;;;;;;;6.10;2.50;;;26.60;53.80;;;;;;21082805;28;20211;-74
2022/06/12 18:57:31;;;;;;;4.17;1.80;;;26.30;54.30;;;;;;21048607;28;20573;-73
2022/06/12 19:07:32;;;;;;;2.70;1.90;;;26.10;54.60;;;;;;21018215;28;20561;-74
2022/06/12 19:17:34;;;;;;;3.37;2.03;;;25.90;55.10;;;;;;21086241;28;20260;-71
2022/06/12 19:27:36;;;;;;;7.03;4.00;;;25.70;55.30;;;;;;21054088;28;20219;-75
2022/06/12 19:37:39;;;;;;;4.13;2.30;;;25.40;55.30;;;;;;21083588;28;20234;-74
2022/06/12 19:47:42;;;;;;;3.47;2.23;;;25.20;55.30;;;;;;21083144;28;20213;-69
2022/06/12 19:57:44;;;;;;;8.23;2.03;;;25.00;55.60;;;;;;21082861;28;20226;-73
2022/06/12 20:07:45;;;;;;;3.47;2.33;;;24.70;55.80;;;;;;21081258;28;20611;-73
2022/06/12 20:17:47;;;;;;;3.13;2.00;;;24.50;55.90;;;;;;21079117;28;20721;-72
2022/06/12 20:27:49;;;;;;;1.97;1.80;;;24.30;56.80;;;;;;21080402;28;20836;-71
2022/06/12 20:37:51;;;;;;;4.90;2.30;;;24.10;56.80;;;;;;21061430;28;20238;-70
2022/06/12 20:47:53;;;;;;;3.70;2.13;;;24.00;56.80;;;;;;21077177;28;20217;-70
2022/06/12 20:57:54;;;;;;;5.20;2.10;;;23.80;57.20;;;;;;21078850;28;20291;-70
2022/06/12 21:07:57;;;;;;;3.33;2.10;;;23.60;58.70;;;;;;21079023;28;20205;-70
2022/06/12 21:17:58;;;;;;;7.13;2.33;;;23.30;59.70;;;;;;21078452;28;20234;-71
2022/06/12 21:28:01;;;;;;;4.13;2.20;;;23.10;60.00;;;;;;21077873;28;20709;-70
2022/06/12 21:38:04;;;;;;;5.87;2.70;;;22.90;60.30;;;;;;21091594;28;20245;-71
2022/06/12 21:48:06;;;;;;;5.20;2.60;;;22.70;61.20;;;;;;21075485;28;20335;-72
2022/06/12 21:58:09;;;;;;;3.20;2.77;;;22.40;62.70;;;;;;21092687;28;20239;-70
2022/06/12 22:08:10;;;;;;;4.77;2.80;;;22.20;63.30;;;;;;21091295;28;20211;-72
2022/06/12 22:18:12;;;;;;;5.10;2.67;;;22.00;63.60;;;;;;21090781;28;20238;-73
2022/06/12 22:28:15;;;;;;;3.00;2.37;;;21.90;64.00;;;;;;21089838;28;20596;-70
2022/06/12 22:38:17;;;;;;;3.20;2.20;;;21.80;64.50;;;;;;21088765;28;20291;-70
2022/06/12 22:48:18;;;;;;;3.90;2.30;;;21.60;64.90;;;;;;21086907;28;20263;-69
2022/06/12 22:58:20;;;;;;;6.17;2.20;;;21.40;65.20;;;;;;21087967;28;20271;-69
2022/06/12 23:08:22;;;;;;;5.63;2.10;;;21.30;65.90;;;;;;21086963;28;20555;-69
2022/06/12 23:18:24;;;;;;;5.03;2.27;;;21.00;65.50;;;;;;21085990;28;20693;-70
2022/06/12 23:28:28;;;;;;;8.33;2.20;;;20.90;67.10;;;;;;21085495;28;20638;-69
2022/06/12 23:38:30;;;;;;;3.80;2.23;;;20.80;66.80;;;;;;21084141;28;20267;-70
2022/06/12 23:48:31;;;;;;;2.37;1.90;;;20.70;66.40;;;;;;21083298;28;20209;-70
2022/06/12 23:58:33;;;;;;;5.57;2.30;;;20.80;64.40;;;;;;21082302;28;20234;-73
